TW-0027 weather

Taipei Trade Center Helipad
Taipei, Taipei (municipality), Taiwan

Public forecast

Using degrees Celsius for public forecast. Weather courtesy of forecast.io.

METAR (pilot weather report)

Closest report is Taipei Songshan Airport, 2.2 nm (4.1 km) NNW. Retrieved 2019/07/20 19:00 UTC (47 minutes ago):

RCSS 201900Z 08005KT 9999 FEW020 27/26 Q1005 NOSIG RMK A2969

TAF (pilot weather forecast)

Closest forecast is Taipei Songshan Airport, 2.2 nm (4.1 km) NNW. Retrieved 2019/07/20 18:00 UTC (2 hours ago):

TAF RCSS 201700Z 2018/2118 08005KT 9999 FEW020 SCT100 TEMPO 2018/2024 31004KT FEW012 BKN020 BECMG 2100/2102 29005KT TEMPO 2105/2107 10008G20KT 2000 TSRA SCT008 BKN012 FEW015CB BKN030 TEMPO 2107/2110 10008KT 3500 SHRA SCT010 FEW015CB BKN020 BKN030 BECMG 2110/2112 09005KT